This is the latest recevied weather packets stored in our database for station/object G8LMY. If no packets are shown the sender has not sent any weather packets the latest 1 day(s).
| Time | Temp. | Humidity | Pressure | Rain* | Wind** | Luminosity | Snow |
|---|---|---|---|---|---|---|---|
| 1778016233 | 12.22° C | 73% | 1011.9 hPa | 0 mm | 0.89 m/s, 75° | - | - |
| 1778015333 | 12.22° C | 71% | 1011.8 hPa | 0 mm | 0.45 m/s, 14° | - | - |
| 1778014433 | 12.78° C | 71% | 1011.8 hPa | 0 mm | 2.24 m/s, 52° | - | - |
| 1778013534 | 12.78° C | 72% | 1011.7 hPa | 0 mm | 0 m/s | - | - |
| 1778012633 | 12.78° C | 71% | 1011.6 hPa | 0 mm | 0.45 m/s, 23° | - | - |
| 1778011733 | 13.33° C | 71% | 1011.6 hPa | 0 mm | 0.89 m/s, 0° | - | - |
| 1778010834 | 13.33° C | 71% | 1011.3 hPa | 0 mm | 0.45 m/s, 350° | - | - |
| 1778009933 | 13.33° C | 71% | 1011.1 hPa | 0 mm | 0.45 m/s, 345° | - | - |
| 1778009033 | 13.33° C | 70% | 1011.1 hPa | 0 mm | 0 m/s | - | - |
| 1778008133 | 13.89° C | 70% | 1010.9 hPa | 0 mm | 0.45 m/s, 346° | - | - |
| 1778007233 | 13.89° C | 70% | 1010.8 hPa | 0 mm | 0 m/s | - | - |
| 1778006333 | 13.89° C | 69% | 1010.8 hPa | 0 mm | 0.45 m/s, 348° | - | - |
| 1778005433 | 13.89° C | 68% | 1010.7 hPa | 0 mm | 0.45 m/s, 344° | - | - |
| 1778004533 | 14.44° C | 67% | 1010.8 hPa | 0 mm | 0.45 m/s, 346° | - | - |
| 1778002733 | 14.44° C | 68% | 1010.7 hPa | 0 mm | 0 m/s | - | - |
| 1778001834 | 13.89° C | 70% | 1010.8 hPa | 0 mm | 0 m/s | - | - |
| 1778000933 | 13.89° C | 70% | 1010.8 hPa | 0 mm | 0.45 m/s, 331° | - | - |
| 1778000033 | 13.89° C | 70% | 1010.9 hPa | 0 mm | 0.45 m/s, 338° | - | - |
| 1777999133 | 14.44° C | 70% | 1010.9 hPa | 0 mm | 0 m/s | - | - |
| 1777998233 | 14.44° C | 70% | 1011 hPa | 0 mm | 0 m/s | - | - |
| 1777997333 | 15° C | 68% | 1011 hPa | 0 mm | 0 m/s | - | - |
| 1777996434 | 15° C | 66% | 1011.1 hPa | 0 mm | 0 m/s | - | - |
| 1777995534 | 15.56° C | 65% | 1011 hPa | 0 mm | 0 m/s | - | - |
| 1777994633 | 15.56° C | 66% | 1011.1 hPa | 0 mm | 0.45 m/s, 20° | - | - |
| 1777993733 | 15.56° C | 66% | 1011.1 hPa | 0 mm | 0 m/s | - | - |
* Rain latest hour (hover to see other rain measurements)
** Current wind speed in m/s (hover to see current wind gust speed)